Terminal Aerodrome Forecast
Issued by NWS Duluth, MN

Home | Current Version | Previous Version | Text Only | Print | Product List | Glossary On
Versions: 1 2 3 4 5 6 7 8 9 10 11 12 13 14 15 16 17 18 19 20 21 22 23 24 25 26 27
000
FTUS43 KDLH 171600 AAA
TAFINL
TAF AMD
KINL 171631Z 1717/1812 04005KT P6SM FEW020
     FM180200 00000KT P6SM SKC
     FM181100 00000KT 4SM BR SCT002=

USA.gov is the U.S. government's official web portal to all federal, state and local government web resources and services.